<?xml version="1.0" encoding="UTF-8" standalone="no" ?>
<gpx xmlns="http://www.topografix.com/GPX/1/1" xmlns:xsi="http://www.w3.org/2001/XMLSchema-instance" xsi:schemaLocation="http://www.topografix.com/GPX/1/1 http://www.topografix.com/GPX/1/1/gpx.xsd" version="1.1" creator="VisuGPX - https://www.visugpx.com">
  <metadata>
    <name>Tréflénévez/Moulin du Cann</name>
    <desc><![CDATA[Départ parking près de la mairie. Balisage jaune(PR) la mairie dans le dos, suivre la rte un moment, puis tourner à droite et suivre un chemin creux en direction du Moulin du Cann, rester à droite de la ferme, et prendre à gauche. Suis une succession de sous bois, de chemins creux vers la D87, traverser et entrer encore dans un bois, poursuivre vers la Croix rouge, puis passer à proximité du château de Kérezellec. Tourner à droite, et poursuivre vers le parking.
ch ]]></desc>
  </metadata>
  <trk>
    <name><![CDATA[Tréflénévez 03-NOV-16]]></name>
    <trkseg>
      <trkpt lat="48.41543" lon="-4.17001">
        <ele>147.22</ele>
        <time>2016-11-03T08:52:33Z</time>
      </trkpt>
      <trkpt lat="48.41539" lon="-4.17003">
        <ele>148.66</ele>
        <time>2016-11-03T08:53:03Z</time>
      </trkpt>
      <trkpt lat="48.41542" lon="-4.1701">
        <ele>150.58</ele>
        <time>2016-11-03T08:53:33Z</time>
      </trkpt>
      <trkpt lat="48.41541" lon="-4.17043">
        <ele>152.99</ele>
        <time>2016-11-03T08:54:03Z</time>
      </trkpt>
      <trkpt lat="48.41533" lon="-4.17084">
        <ele>145.3</ele>
        <time>2016-11-03T08:54:33Z</time>
      </trkpt>
      <trkpt lat="48.41528" lon="-4.171">
        <ele>149.14</ele>
        <time>2016-11-03T08:55:03Z</time>
      </trkpt>
      <trkpt lat="48.41527" lon="-4.171">
        <ele>149.62</ele>
        <time>2016-11-03T08:55:33Z</time>
      </trkpt>
      <trkpt lat="48.41535" lon="-4.17115">
        <ele>153.47</ele>
        <time>2016-11-03T08:56:03Z</time>
      </trkpt>
      <trkpt lat="48.41556" lon="-4.17128">
        <ele>156.83</ele>
        <time>2016-11-03T08:56:33Z</time>
      </trkpt>
      <trkpt lat="48.4158" lon="-4.17108">
        <ele>156.35</ele>
        <time>2016-11-03T08:57:03Z</time>
      </trkpt>
      <trkpt lat="48.41597" lon="-4.17064">
        <ele>159.72</ele>
        <time>2016-11-03T08:57:33Z</time>
      </trkpt>
      <trkpt lat="48.41602" lon="-4.17062">
        <ele>159.24</ele>
        <time>2016-11-03T08:58:03Z</time>
      </trkpt>
      <trkpt lat="48.4162" lon="-4.17063">
        <ele>157.79</ele>
        <time>2016-11-03T08:58:33Z</time>
      </trkpt>
      <trkpt lat="48.41656" lon="-4.17059">
        <ele>158.75</ele>
        <time>2016-11-03T08:59:03Z</time>
      </trkpt>
      <trkpt lat="48.41686" lon="-4.17053">
        <ele>160.68</ele>
        <time>2016-11-03T08:59:33Z</time>
      </trkpt>
      <trkpt lat="48.41712" lon="-4.17019">
        <ele>160.2</ele>
        <time>2016-11-03T09:00:03Z</time>
      </trkpt>
      <trkpt lat="48.41738" lon="-4.16982">
        <ele>161.16</ele>
        <time>2016-11-03T09:00:33Z</time>
      </trkpt>
      <trkpt lat="48.41762" lon="-4.16946">
        <ele>162.6</ele>
        <time>2016-11-03T09:01:03Z</time>
      </trkpt>
      <trkpt lat="48.4179" lon="-4.16911">
        <ele>162.12</ele>
        <time>2016-11-03T09:01:33Z</time>
      </trkpt>
      <trkpt lat="48.41815" lon="-4.16881">
        <ele>163.56</ele>
        <time>2016-11-03T09:02:03Z</time>
      </trkpt>
      <trkpt lat="48.4185" lon="-4.1686">
        <ele>164.04</ele>
        <time>2016-11-03T09:02:33Z</time>
      </trkpt>
      <trkpt lat="48.41868" lon="-4.16828">
        <ele>159.24</ele>
        <time>2016-11-03T09:03:03Z</time>
      </trkpt>
      <trkpt lat="48.41869" lon="-4.16782">
        <ele>155.87</ele>
        <time>2016-11-03T09:03:33Z</time>
      </trkpt>
      <trkpt lat="48.41864" lon="-4.1673">
        <ele>161.16</ele>
        <time>2016-11-03T09:04:03Z</time>
      </trkpt>
      <trkpt lat="48.41853" lon="-4.16685">
        <ele>160.2</ele>
        <time>2016-11-03T09:04:33Z</time>
      </trkpt>
      <trkpt lat="48.41846" lon="-4.16639">
        <ele>158.27</ele>
        <time>2016-11-03T09:05:03Z</time>
      </trkpt>
      <trkpt lat="48.41827" lon="-4.16591">
        <ele>152.99</ele>
        <time>2016-11-03T09:05:33Z</time>
      </trkpt>
      <trkpt lat="48.41821" lon="-4.16547">
        <ele>147.22</ele>
        <time>2016-11-03T09:06:03Z</time>
      </trkpt>
      <trkpt lat="48.41821" lon="-4.1649">
        <ele>143.37</ele>
        <time>2016-11-03T09:06:33Z</time>
      </trkpt>
      <trkpt lat="48.41823" lon="-4.16436">
        <ele>142.41</ele>
        <time>2016-11-03T09:07:03Z</time>
      </trkpt>
      <trkpt lat="48.4184" lon="-4.16394">
        <ele>133.76</ele>
        <time>2016-11-03T09:07:33Z</time>
      </trkpt>
      <trkpt lat="48.41853" lon="-4.16376">
        <ele>130.4</ele>
        <time>2016-11-03T09:08:03Z</time>
      </trkpt>
      <trkpt lat="48.4187" lon="-4.16335">
        <ele>124.15</ele>
        <time>2016-11-03T09:08:33Z</time>
      </trkpt>
      <trkpt lat="48.41888" lon="-4.1629">
        <ele>121.26</ele>
        <time>2016-11-03T09:09:03Z</time>
      </trkpt>
      <trkpt lat="48.41905" lon="-4.16251">
        <ele>116.46</ele>
        <time>2016-11-03T09:09:33Z</time>
      </trkpt>
      <trkpt lat="48.41924" lon="-4.16203">
        <ele>115.5</ele>
        <time>2016-11-03T09:10:03Z</time>
      </trkpt>
      <trkpt lat="48.41941" lon="-4.16153">
        <ele>115.5</ele>
        <time>2016-11-03T09:10:33Z</time>
      </trkpt>
      <trkpt lat="48.41965" lon="-4.16111">
        <ele>111.65</ele>
        <time>2016-11-03T09:11:03Z</time>
      </trkpt>
      <trkpt lat="48.41979" lon="-4.16062">
        <ele>110.69</ele>
        <time>2016-11-03T09:11:33Z</time>
      </trkpt>
      <trkpt lat="48.41993" lon="-4.16008">
        <ele>109.73</ele>
        <time>2016-11-03T09:12:03Z</time>
      </trkpt>
      <trkpt lat="48.42003" lon="-4.15961">
        <ele>108.29</ele>
        <time>2016-11-03T09:12:33Z</time>
      </trkpt>
      <trkpt lat="48.42009" lon="-4.15907">
        <ele>108.77</ele>
        <time>2016-11-03T09:13:03Z</time>
      </trkpt>
      <trkpt lat="48.42016" lon="-4.15856">
        <ele>107.32</ele>
        <time>2016-11-03T09:13:33Z</time>
      </trkpt>
      <trkpt lat="48.42021" lon="-4.15808">
        <ele>102.52</ele>
        <time>2016-11-03T09:14:03Z</time>
      </trkpt>
      <trkpt lat="48.42033" lon="-4.15751">
        <ele>99.63</ele>
        <time>2016-11-03T09:14:33Z</time>
      </trkpt>
      <trkpt lat="48.42049" lon="-4.15719">
        <ele>95.79</ele>
        <time>2016-11-03T09:15:03Z</time>
      </trkpt>
      <trkpt lat="48.42071" lon="-4.15675">
        <ele>91.94</ele>
        <time>2016-11-03T09:15:33Z</time>
      </trkpt>
      <trkpt lat="48.42089" lon="-4.15625">
        <ele>84.73</ele>
        <time>2016-11-03T09:16:03Z</time>
      </trkpt>
      <trkpt lat="48.42105" lon="-4.15591">
        <ele>78.97</ele>
        <time>2016-11-03T09:16:33Z</time>
      </trkpt>
      <trkpt lat="48.42132" lon="-4.15555">
        <ele>79.45</ele>
        <time>2016-11-03T09:17:03Z</time>
      </trkpt>
      <trkpt lat="48.42141" lon="-4.15552">
        <ele>74.16</ele>
        <time>2016-11-03T09:17:33Z</time>
      </trkpt>
      <trkpt lat="48.42158" lon="-4.15563">
        <ele>70.31</ele>
        <time>2016-11-03T09:18:03Z</time>
      </trkpt>
      <trkpt lat="48.42236" lon="-4.15594">
        <ele>90.02</ele>
        <time>2016-11-03T09:18:33Z</time>
      </trkpt>
      <trkpt lat="48.42258" lon="-4.15607">
        <ele>85.69</ele>
        <time>2016-11-03T09:19:03Z</time>
      </trkpt>
      <trkpt lat="48.42278" lon="-4.15627">
        <ele>79.45</ele>
        <time>2016-11-03T09:19:33Z</time>
      </trkpt>
      <trkpt lat="48.42287" lon="-4.15654">
        <ele>75.6</ele>
        <time>2016-11-03T09:20:03Z</time>
      </trkpt>
      <trkpt lat="48.42307" lon="-4.15691">
        <ele>67.91</ele>
        <time>2016-11-03T09:20:33Z</time>
      </trkpt>
      <trkpt lat="48.42336" lon="-4.15729">
        <ele>70.31</ele>
        <time>2016-11-03T09:21:03Z</time>
      </trkpt>
      <trkpt lat="48.42359" lon="-4.15771">
        <ele>69.83</ele>
        <time>2016-11-03T09:21:33Z</time>
      </trkpt>
      <trkpt lat="48.42387" lon="-4.15788">
        <ele>75.6</ele>
        <time>2016-11-03T09:22:03Z</time>
      </trkpt>
      <trkpt lat="48.42386" lon="-4.15798">
        <ele>81.37</ele>
        <time>2016-11-03T09:22:33Z</time>
      </trkpt>
      <trkpt lat="48.42388" lon="-4.15794">
        <ele>80.89</ele>
        <time>2016-11-03T09:23:03Z</time>
      </trkpt>
      <trkpt lat="48.42391" lon="-4.15789">
        <ele>83.29</ele>
        <time>2016-11-03T09:23:33Z</time>
      </trkpt>
      <trkpt lat="48.42392" lon="-4.1579">
        <ele>83.29</ele>
        <time>2016-11-03T09:24:03Z</time>
      </trkpt>
      <trkpt lat="48.42393" lon="-4.15789">
        <ele>83.77</ele>
        <time>2016-11-03T09:24:33Z</time>
      </trkpt>
      <trkpt lat="48.42408" lon="-4.15783">
        <ele>85.21</ele>
        <time>2016-11-03T09:25:03Z</time>
      </trkpt>
      <trkpt lat="48.42412" lon="-4.15784">
        <ele>85.21</ele>
        <time>2016-11-03T09:25:33Z</time>
      </trkpt>
      <trkpt lat="48.42413" lon="-4.15783">
        <ele>86.18</ele>
        <time>2016-11-03T09:26:03Z</time>
      </trkpt>
      <trkpt lat="48.42415" lon="-4.15782">
        <ele>85.69</ele>
        <time>2016-11-03T09:26:33Z</time>
      </trkpt>
      <trkpt lat="48.42441" lon="-4.15777">
        <ele>89.54</ele>
        <time>2016-11-03T09:27:03Z</time>
      </trkpt>
      <trkpt lat="48.42473" lon="-4.15779">
        <ele>91.46</ele>
        <time>2016-11-03T09:27:33Z</time>
      </trkpt>
      <trkpt lat="48.42504" lon="-4.15775">
        <ele>97.71</ele>
        <time>2016-11-03T09:28:03Z</time>
      </trkpt>
      <trkpt lat="48.42513" lon="-4.15748">
        <ele>99.15</ele>
        <time>2016-11-03T09:28:33Z</time>
      </trkpt>
      <trkpt lat="48.42532" lon="-4.15703">
        <ele>103.96</ele>
        <time>2016-11-03T09:29:03Z</time>
      </trkpt>
      <trkpt lat="48.42556" lon="-4.15703">
        <ele>105.4</ele>
        <time>2016-11-03T09:29:33Z</time>
      </trkpt>
      <trkpt lat="48.42583" lon="-4.15717">
        <ele>102.52</ele>
        <time>2016-11-03T09:30:03Z</time>
      </trkpt>
      <trkpt lat="48.42613" lon="-4.15725">
        <ele>99.15</ele>
        <time>2016-11-03T09:30:33Z</time>
      </trkpt>
      <trkpt lat="48.42643" lon="-4.15736">
        <ele>99.63</ele>
        <time>2016-11-03T09:31:03Z</time>
      </trkpt>
      <trkpt lat="48.42669" lon="-4.15745">
        <ele>97.23</ele>
        <time>2016-11-03T09:31:33Z</time>
      </trkpt>
      <trkpt lat="48.42694" lon="-4.15761">
        <ele>89.06</ele>
        <time>2016-11-03T09:32:03Z</time>
      </trkpt>
      <trkpt lat="48.42713" lon="-4.15771">
        <ele>93.87</ele>
        <time>2016-11-03T09:32:33Z</time>
      </trkpt>
      <trkpt lat="48.4275" lon="-4.1579">
        <ele>102.04</ele>
        <time>2016-11-03T09:33:03Z</time>
      </trkpt>
      <trkpt lat="48.42789" lon="-4.15815">
        <ele>114.05</ele>
        <time>2016-11-03T09:33:33Z</time>
      </trkpt>
      <trkpt lat="48.42815" lon="-4.1583">
        <ele>112.13</ele>
        <time>2016-11-03T09:34:03Z</time>
      </trkpt>
      <trkpt lat="48.42838" lon="-4.15833">
        <ele>117.42</ele>
        <time>2016-11-03T09:34:33Z</time>
      </trkpt>
      <trkpt lat="48.4284" lon="-4.15834">
        <ele>117.42</ele>
        <time>2016-11-03T09:35:03Z</time>
      </trkpt>
      <trkpt lat="48.42842" lon="-4.15836">
        <ele>117.9</ele>
        <time>2016-11-03T09:35:33Z</time>
      </trkpt>
      <trkpt lat="48.42846" lon="-4.1584">
        <ele>118.38</ele>
        <time>2016-11-03T09:36:03Z</time>
      </trkpt>
      <trkpt lat="48.42862" lon="-4.15861">
        <ele>121.26</ele>
        <time>2016-11-03T09:36:33Z</time>
      </trkpt>
      <trkpt lat="48.42871" lon="-4.15871">
        <ele>124.15</ele>
        <time>2016-11-03T09:37:03Z</time>
      </trkpt>
      <trkpt lat="48.4288" lon="-4.15896">
        <ele>120.3</ele>
        <time>2016-11-03T09:37:33Z</time>
      </trkpt>
      <trkpt lat="48.42896" lon="-4.15936">
        <ele>118.38</ele>
        <time>2016-11-03T09:38:03Z</time>
      </trkpt>
      <trkpt lat="48.4291" lon="-4.1598">
        <ele>112.13</ele>
        <time>2016-11-03T09:38:33Z</time>
      </trkpt>
      <trkpt lat="48.42923" lon="-4.16024">
        <ele>107.32</ele>
        <time>2016-11-03T09:39:03Z</time>
      </trkpt>
      <trkpt lat="48.42931" lon="-4.16063">
        <ele>97.23</ele>
        <time>2016-11-03T09:39:33Z</time>
      </trkpt>
      <trkpt lat="48.42962" lon="-4.16109">
        <ele>99.15</ele>
        <time>2016-11-03T09:40:03Z</time>
      </trkpt>
      <trkpt lat="48.42987" lon="-4.16136">
        <ele>98.19</ele>
        <time>2016-11-03T09:40:33Z</time>
      </trkpt>
      <trkpt lat="48.43023" lon="-4.1615">
        <ele>97.71</ele>
        <time>2016-11-03T09:41:03Z</time>
      </trkpt>
      <trkpt lat="48.43051" lon="-4.16171">
        <ele>96.75</ele>
        <time>2016-11-03T09:41:33Z</time>
      </trkpt>
      <trkpt lat="48.43065" lon="-4.16196">
        <ele>96.27</ele>
        <time>2016-11-03T09:42:03Z</time>
      </trkpt>
      <trkpt lat="48.43087" lon="-4.16245">
        <ele>95.79</ele>
        <time>2016-11-03T09:42:33Z</time>
      </trkpt>
      <trkpt lat="48.43101" lon="-4.16285">
        <ele>96.75</ele>
        <time>2016-11-03T09:43:03Z</time>
      </trkpt>
      <trkpt lat="48.43113" lon="-4.16326">
        <ele>93.39</ele>
        <time>2016-11-03T09:43:33Z</time>
      </trkpt>
      <trkpt lat="48.43146" lon="-4.16365">
        <ele>100.6</ele>
        <time>2016-11-03T09:44:03Z</time>
      </trkpt>
      <trkpt lat="48.43152" lon="-4.16417">
        <ele>95.31</ele>
        <time>2016-11-03T09:44:33Z</time>
      </trkpt>
      <trkpt lat="48.43149" lon="-4.16451">
        <ele>87.62</ele>
        <time>2016-11-03T09:45:03Z</time>
      </trkpt>
      <trkpt lat="48.43153" lon="-4.16495">
        <ele>76.56</ele>
        <time>2016-11-03T09:45:33Z</time>
      </trkpt>
      <trkpt lat="48.43184" lon="-4.16537">
        <ele>77.52</ele>
        <time>2016-11-03T09:46:03Z</time>
      </trkpt>
      <trkpt lat="48.43213" lon="-4.1657">
        <ele>84.73</ele>
        <time>2016-11-03T09:46:33Z</time>
      </trkpt>
      <trkpt lat="48.4323" lon="-4.16607">
        <ele>87.14</ele>
        <time>2016-11-03T09:47:03Z</time>
      </trkpt>
      <trkpt lat="48.43233" lon="-4.16614">
        <ele>87.14</ele>
        <time>2016-11-03T09:47:33Z</time>
      </trkpt>
      <trkpt lat="48.43234" lon="-4.16621">
        <ele>90.5</ele>
        <time>2016-11-03T09:48:03Z</time>
      </trkpt>
      <trkpt lat="48.43232" lon="-4.16644">
        <ele>100.6</ele>
        <time>2016-11-03T09:48:33Z</time>
      </trkpt>
      <trkpt lat="48.43214" lon="-4.16681">
        <ele>101.56</ele>
        <time>2016-11-03T09:49:03Z</time>
      </trkpt>
      <trkpt lat="48.43188" lon="-4.1669">
        <ele>101.08</ele>
        <time>2016-11-03T09:49:33Z</time>
      </trkpt>
      <trkpt lat="48.43154" lon="-4.16708">
        <ele>98.67</ele>
        <time>2016-11-03T09:50:03Z</time>
      </trkpt>
      <trkpt lat="48.43121" lon="-4.16721">
        <ele>96.27</ele>
        <time>2016-11-03T09:50:33Z</time>
      </trkpt>
      <trkpt lat="48.43074" lon="-4.16721">
        <ele>102.04</ele>
        <time>2016-11-03T09:51:03Z</time>
      </trkpt>
      <trkpt lat="48.4304" lon="-4.16719">
        <ele>104.44</ele>
        <time>2016-11-03T09:51:33Z</time>
      </trkpt>
      <trkpt lat="48.43008" lon="-4.16732">
        <ele>104.44</ele>
        <time>2016-11-03T09:52:03Z</time>
      </trkpt>
      <trkpt lat="48.42977" lon="-4.16762">
        <ele>103.48</ele>
        <time>2016-11-03T09:52:33Z</time>
      </trkpt>
      <trkpt lat="48.42954" lon="-4.16788">
        <ele>108.29</ele>
        <time>2016-11-03T09:53:03Z</time>
      </trkpt>
      <trkpt lat="48.42916" lon="-4.16782">
        <ele>112.13</ele>
        <time>2016-11-03T09:53:33Z</time>
      </trkpt>
      <trkpt lat="48.42885" lon="-4.16776">
        <ele>115.5</ele>
        <time>2016-11-03T09:54:03Z</time>
      </trkpt>
      <trkpt lat="48.42855" lon="-4.16791">
        <ele>114.05</ele>
        <time>2016-11-03T09:54:33Z</time>
      </trkpt>
      <trkpt lat="48.42821" lon="-4.16828">
        <ele>116.46</ele>
        <time>2016-11-03T09:55:03Z</time>
      </trkpt>
      <trkpt lat="48.428" lon="-4.16858">
        <ele>116.94</ele>
        <time>2016-11-03T09:55:33Z</time>
      </trkpt>
      <trkpt lat="48.42774" lon="-4.16897">
        <ele>122.22</ele>
        <time>2016-11-03T09:56:03Z</time>
      </trkpt>
      <trkpt lat="48.42757" lon="-4.16944">
        <ele>127.99</ele>
        <time>2016-11-03T09:56:33Z</time>
      </trkpt>
      <trkpt lat="48.42738" lon="-4.16994">
        <ele>129.43</ele>
        <time>2016-11-03T09:57:03Z</time>
      </trkpt>
      <trkpt lat="48.4271" lon="-4.16993">
        <ele>130.88</ele>
        <time>2016-11-03T09:57:33Z</time>
      </trkpt>
      <trkpt lat="48.42687" lon="-4.16964">
        <ele>119.34</ele>
        <time>2016-11-03T09:58:03Z</time>
      </trkpt>
      <trkpt lat="48.42662" lon="-4.16944">
        <ele>114.05</ele>
        <time>2016-11-03T09:58:33Z</time>
      </trkpt>
      <trkpt lat="48.4265" lon="-4.16948">
        <ele>119.82</ele>
        <time>2016-11-03T09:59:03Z</time>
      </trkpt>
      <trkpt lat="48.4263" lon="-4.16963">
        <ele>125.11</ele>
        <time>2016-11-03T09:59:33Z</time>
      </trkpt>
      <trkpt lat="48.42606" lon="-4.16933">
        <ele>122.22</ele>
        <time>2016-11-03T10:00:03Z</time>
      </trkpt>
      <trkpt lat="48.42583" lon="-4.16898">
        <ele>117.42</ele>
        <time>2016-11-03T10:00:33Z</time>
      </trkpt>
      <trkpt lat="48.42559" lon="-4.16855">
        <ele>120.3</ele>
        <time>2016-11-03T10:01:03Z</time>
      </trkpt>
      <trkpt lat="48.42535" lon="-4.16824">
        <ele>126.55</ele>
        <time>2016-11-03T10:01:33Z</time>
      </trkpt>
      <trkpt lat="48.42509" lon="-4.16788">
        <ele>124.63</ele>
        <time>2016-11-03T10:02:03Z</time>
      </trkpt>
      <trkpt lat="48.4248" lon="-4.16749">
        <ele>127.99</ele>
        <time>2016-11-03T10:02:33Z</time>
      </trkpt>
      <trkpt lat="48.42453" lon="-4.16711">
        <ele>122.22</ele>
        <time>2016-11-03T10:03:03Z</time>
      </trkpt>
      <trkpt lat="48.42439" lon="-4.16661">
        <ele>118.38</ele>
        <time>2016-11-03T10:03:33Z</time>
      </trkpt>
      <trkpt lat="48.42407" lon="-4.16629">
        <ele>115.01</ele>
        <time>2016-11-03T10:04:03Z</time>
      </trkpt>
      <trkpt lat="48.42376" lon="-4.1661">
        <ele>108.29</ele>
        <time>2016-11-03T10:04:33Z</time>
      </trkpt>
      <trkpt lat="48.42342" lon="-4.16582">
        <ele>104.44</ele>
        <time>2016-11-03T10:05:03Z</time>
      </trkpt>
      <trkpt lat="48.42311" lon="-4.16541">
        <ele>107.32</ele>
        <time>2016-11-03T10:05:33Z</time>
      </trkpt>
      <trkpt lat="48.42284" lon="-4.16509">
        <ele>110.21</ele>
        <time>2016-11-03T10:06:03Z</time>
      </trkpt>
      <trkpt lat="48.42255" lon="-4.16492">
        <ele>110.69</ele>
        <time>2016-11-03T10:06:33Z</time>
      </trkpt>
      <trkpt lat="48.42223" lon="-4.16476">
        <ele>110.21</ele>
        <time>2016-11-03T10:07:03Z</time>
      </trkpt>
      <trkpt lat="48.4219" lon="-4.16453">
        <ele>117.9</ele>
        <time>2016-11-03T10:07:33Z</time>
      </trkpt>
      <trkpt lat="48.42158" lon="-4.16438">
        <ele>119.82</ele>
        <time>2016-11-03T10:08:03Z</time>
      </trkpt>
      <trkpt lat="48.42161" lon="-4.16475">
        <ele>120.78</ele>
        <time>2016-11-03T10:08:33Z</time>
      </trkpt>
      <trkpt lat="48.42171" lon="-4.16536">
        <ele>122.71</ele>
        <time>2016-11-03T10:09:03Z</time>
      </trkpt>
      <trkpt lat="48.42188" lon="-4.16588">
        <ele>124.63</ele>
        <time>2016-11-03T10:09:33Z</time>
      </trkpt>
      <trkpt lat="48.42197" lon="-4.16641">
        <ele>124.63</ele>
        <time>2016-11-03T10:10:03Z</time>
      </trkpt>
      <trkpt lat="48.42204" lon="-4.16696">
        <ele>127.03</ele>
        <time>2016-11-03T10:10:33Z</time>
      </trkpt>
      <trkpt lat="48.42209" lon="-4.16757">
        <ele>124.15</ele>
        <time>2016-11-03T10:11:03Z</time>
      </trkpt>
      <trkpt lat="48.42212" lon="-4.16824">
        <ele>128.95</ele>
        <time>2016-11-03T10:11:33Z</time>
      </trkpt>
      <trkpt lat="48.42219" lon="-4.16876">
        <ele>129.92</ele>
        <time>2016-11-03T10:12:03Z</time>
      </trkpt>
      <trkpt lat="48.42234" lon="-4.16935">
        <ele>130.4</ele>
        <time>2016-11-03T10:12:33Z</time>
      </trkpt>
      <trkpt lat="48.42249" lon="-4.16983">
        <ele>128.95</ele>
        <time>2016-11-03T10:13:03Z</time>
      </trkpt>
      <trkpt lat="48.42253" lon="-4.17035">
        <ele>127.99</ele>
        <time>2016-11-03T10:13:33Z</time>
      </trkpt>
      <trkpt lat="48.42245" lon="-4.17101">
        <ele>121.74</ele>
        <time>2016-11-03T10:14:03Z</time>
      </trkpt>
      <trkpt lat="48.42227" lon="-4.17159">
        <ele>118.38</ele>
        <time>2016-11-03T10:14:33Z</time>
      </trkpt>
      <trkpt lat="48.42216" lon="-4.17195">
        <ele>116.46</ele>
        <time>2016-11-03T10:15:03Z</time>
      </trkpt>
      <trkpt lat="48.42213" lon="-4.17223">
        <ele>119.34</ele>
        <time>2016-11-03T10:15:33Z</time>
      </trkpt>
      <trkpt lat="48.42191" lon="-4.17259">
        <ele>119.34</ele>
        <time>2016-11-03T10:16:03Z</time>
      </trkpt>
      <trkpt lat="48.4217" lon="-4.17318">
        <ele>128.47</ele>
        <time>2016-11-03T10:16:33Z</time>
      </trkpt>
      <trkpt lat="48.42157" lon="-4.17368">
        <ele>119.82</ele>
        <time>2016-11-03T10:17:03Z</time>
      </trkpt>
      <trkpt lat="48.42143" lon="-4.1742">
        <ele>119.82</ele>
        <time>2016-11-03T10:17:33Z</time>
      </trkpt>
      <trkpt lat="48.42126" lon="-4.17471">
        <ele>123.67</ele>
        <time>2016-11-03T10:18:03Z</time>
      </trkpt>
      <trkpt lat="48.42109" lon="-4.17515">
        <ele>122.71</ele>
        <time>2016-11-03T10:18:33Z</time>
      </trkpt>
      <trkpt lat="48.42084" lon="-4.17566">
        <ele>118.86</ele>
        <time>2016-11-03T10:19:03Z</time>
      </trkpt>
      <trkpt lat="48.42066" lon="-4.17626">
        <ele>123.67</ele>
        <time>2016-11-03T10:19:33Z</time>
      </trkpt>
      <trkpt lat="48.4206" lon="-4.17683">
        <ele>122.71</ele>
        <time>2016-11-03T10:20:03Z</time>
      </trkpt>
      <trkpt lat="48.42054" lon="-4.17737">
        <ele>122.22</ele>
        <time>2016-11-03T10:20:33Z</time>
      </trkpt>
      <trkpt lat="48.42049" lon="-4.17805">
        <ele>126.07</ele>
        <time>2016-11-03T10:21:03Z</time>
      </trkpt>
      <trkpt lat="48.42044" lon="-4.17861">
        <ele>126.07</ele>
        <time>2016-11-03T10:21:33Z</time>
      </trkpt>
      <trkpt lat="48.4204" lon="-4.17917">
        <ele>127.51</ele>
        <time>2016-11-03T10:22:03Z</time>
      </trkpt>
      <trkpt lat="48.42037" lon="-4.17976">
        <ele>122.22</ele>
        <time>2016-11-03T10:22:33Z</time>
      </trkpt>
      <trkpt lat="48.42017" lon="-4.18023">
        <ele>126.07</ele>
        <time>2016-11-03T10:23:03Z</time>
      </trkpt>
      <trkpt lat="48.41989" lon="-4.18063">
        <ele>128.95</ele>
        <time>2016-11-03T10:23:33Z</time>
      </trkpt>
      <trkpt lat="48.41965" lon="-4.1811">
        <ele>130.4</ele>
        <time>2016-11-03T10:24:03Z</time>
      </trkpt>
      <trkpt lat="48.41943" lon="-4.18159">
        <ele>128.95</ele>
        <time>2016-11-03T10:24:33Z</time>
      </trkpt>
      <trkpt lat="48.41922" lon="-4.18204">
        <ele>134.24</ele>
        <time>2016-11-03T10:25:03Z</time>
      </trkpt>
      <trkpt lat="48.41901" lon="-4.18247">
        <ele>134.24</ele>
        <time>2016-11-03T10:25:33Z</time>
      </trkpt>
      <trkpt lat="48.41885" lon="-4.18289">
        <ele>137.13</ele>
        <time>2016-11-03T10:26:03Z</time>
      </trkpt>
      <trkpt lat="48.41864" lon="-4.18355">
        <ele>142.89</ele>
        <time>2016-11-03T10:26:33Z</time>
      </trkpt>
      <trkpt lat="48.41852" lon="-4.18389">
        <ele>140.49</ele>
        <time>2016-11-03T10:27:03Z</time>
      </trkpt>
      <trkpt lat="48.41844" lon="-4.18445">
        <ele>136.64</ele>
        <time>2016-11-03T10:27:33Z</time>
      </trkpt>
      <trkpt lat="48.41806" lon="-4.18488">
        <ele>138.57</ele>
        <time>2016-11-03T10:28:03Z</time>
      </trkpt>
      <trkpt lat="48.41773" lon="-4.18501">
        <ele>140.01</ele>
        <time>2016-11-03T10:28:33Z</time>
      </trkpt>
      <trkpt lat="48.41735" lon="-4.18512">
        <ele>143.85</ele>
        <time>2016-11-03T10:29:03Z</time>
      </trkpt>
      <trkpt lat="48.41702" lon="-4.18526">
        <ele>149.14</ele>
        <time>2016-11-03T10:29:33Z</time>
      </trkpt>
      <trkpt lat="48.41666" lon="-4.18539">
        <ele>152.99</ele>
        <time>2016-11-03T10:30:03Z</time>
      </trkpt>
      <trkpt lat="48.41628" lon="-4.18559">
        <ele>148.66</ele>
        <time>2016-11-03T10:30:33Z</time>
      </trkpt>
      <trkpt lat="48.41597" lon="-4.18551">
        <ele>143.37</ele>
        <time>2016-11-03T10:31:03Z</time>
      </trkpt>
      <trkpt lat="48.41564" lon="-4.18516">
        <ele>147.22</ele>
        <time>2016-11-03T10:31:33Z</time>
      </trkpt>
      <trkpt lat="48.41533" lon="-4.18552">
        <ele>148.18</ele>
        <time>2016-11-03T10:32:03Z</time>
      </trkpt>
      <trkpt lat="48.41508" lon="-4.18596">
        <ele>150.1</ele>
        <time>2016-11-03T10:32:33Z</time>
      </trkpt>
      <trkpt lat="48.41477" lon="-4.18629">
        <ele>152.03</ele>
        <time>2016-11-03T10:33:03Z</time>
      </trkpt>
      <trkpt lat="48.41444" lon="-4.18646">
        <ele>148.66</ele>
        <time>2016-11-03T10:33:33Z</time>
      </trkpt>
      <trkpt lat="48.4141" lon="-4.18653">
        <ele>151.06</ele>
        <time>2016-11-03T10:34:03Z</time>
      </trkpt>
      <trkpt lat="48.414" lon="-4.18699">
        <ele>151.06</ele>
        <time>2016-11-03T10:34:33Z</time>
      </trkpt>
      <trkpt lat="48.41376" lon="-4.18749">
        <ele>152.51</ele>
        <time>2016-11-03T10:35:03Z</time>
      </trkpt>
      <trkpt lat="48.4134" lon="-4.18794">
        <ele>151.06</ele>
        <time>2016-11-03T10:35:33Z</time>
      </trkpt>
      <trkpt lat="48.41312" lon="-4.18829">
        <ele>147.22</ele>
        <time>2016-11-03T10:36:03Z</time>
      </trkpt>
      <trkpt lat="48.4128" lon="-4.18862">
        <ele>144.82</ele>
        <time>2016-11-03T10:36:33Z</time>
      </trkpt>
      <trkpt lat="48.4125" lon="-4.18908">
        <ele>148.66</ele>
        <time>2016-11-03T10:37:03Z</time>
      </trkpt>
      <trkpt lat="48.41221" lon="-4.18951">
        <ele>147.7</ele>
        <time>2016-11-03T10:37:33Z</time>
      </trkpt>
      <trkpt lat="48.41192" lon="-4.18989">
        <ele>144.82</ele>
        <time>2016-11-03T10:38:03Z</time>
      </trkpt>
      <trkpt lat="48.41159" lon="-4.19029">
        <ele>145.78</ele>
        <time>2016-11-03T10:38:33Z</time>
      </trkpt>
      <trkpt lat="48.41129" lon="-4.19072">
        <ele>140.49</ele>
        <time>2016-11-03T10:39:03Z</time>
      </trkpt>
      <trkpt lat="48.41098" lon="-4.19115">
        <ele>138.09</ele>
        <time>2016-11-03T10:39:33Z</time>
      </trkpt>
      <trkpt lat="48.41069" lon="-4.19153">
        <ele>135.2</ele>
        <time>2016-11-03T10:40:03Z</time>
      </trkpt>
      <trkpt lat="48.41057" lon="-4.19175">
        <ele>131.84</ele>
        <time>2016-11-03T10:40:33Z</time>
      </trkpt>
      <trkpt lat="48.41027" lon="-4.19204">
        <ele>125.11</ele>
        <time>2016-11-03T10:41:03Z</time>
      </trkpt>
      <trkpt lat="48.41" lon="-4.19237">
        <ele>127.99</ele>
        <time>2016-11-03T10:41:33Z</time>
      </trkpt>
      <trkpt lat="48.40978" lon="-4.19255">
        <ele>125.11</ele>
        <time>2016-11-03T10:42:03Z</time>
      </trkpt>
      <trkpt lat="48.40955" lon="-4.19219">
        <ele>125.59</ele>
        <time>2016-11-03T10:42:33Z</time>
      </trkpt>
      <trkpt lat="48.40926" lon="-4.19182">
        <ele>127.99</ele>
        <time>2016-11-03T10:43:03Z</time>
      </trkpt>
      <trkpt lat="48.40892" lon="-4.19144">
        <ele>132.8</ele>
        <time>2016-11-03T10:43:33Z</time>
      </trkpt>
      <trkpt lat="48.40861" lon="-4.19124">
        <ele>134.24</ele>
        <time>2016-11-03T10:44:03Z</time>
      </trkpt>
      <trkpt lat="48.4082" lon="-4.1911">
        <ele>139.53</ele>
        <time>2016-11-03T10:44:33Z</time>
      </trkpt>
      <trkpt lat="48.4078" lon="-4.19102">
        <ele>139.53</ele>
        <time>2016-11-03T10:45:03Z</time>
      </trkpt>
      <trkpt lat="48.40739" lon="-4.19097">
        <ele>133.76</ele>
        <time>2016-11-03T10:45:33Z</time>
      </trkpt>
      <trkpt lat="48.40703" lon="-4.19091">
        <ele>130.4</ele>
        <time>2016-11-03T10:46:03Z</time>
      </trkpt>
      <trkpt lat="48.40669" lon="-4.19063">
        <ele>132.8</ele>
        <time>2016-11-03T10:46:33Z</time>
      </trkpt>
      <trkpt lat="48.40629" lon="-4.1904">
        <ele>142.41</ele>
        <time>2016-11-03T10:47:03Z</time>
      </trkpt>
      <trkpt lat="48.40602" lon="-4.19003">
        <ele>140.49</ele>
        <time>2016-11-03T10:47:33Z</time>
      </trkpt>
      <trkpt lat="48.40568" lon="-4.18961">
        <ele>135.2</ele>
        <time>2016-11-03T10:48:03Z</time>
      </trkpt>
      <trkpt lat="48.4055" lon="-4.18925">
        <ele>130.4</ele>
        <time>2016-11-03T10:48:33Z</time>
      </trkpt>
      <trkpt lat="48.40525" lon="-4.18885">
        <ele>125.59</ele>
        <time>2016-11-03T10:49:03Z</time>
      </trkpt>
      <trkpt lat="48.40492" lon="-4.18838">
        <ele>125.11</ele>
        <time>2016-11-03T10:49:33Z</time>
      </trkpt>
      <trkpt lat="48.40462" lon="-4.18798">
        <ele>118.38</ele>
        <time>2016-11-03T10:50:03Z</time>
      </trkpt>
      <trkpt lat="48.40431" lon="-4.18765">
        <ele>111.65</ele>
        <time>2016-11-03T10:50:33Z</time>
      </trkpt>
      <trkpt lat="48.40414" lon="-4.18718">
        <ele>105.88</ele>
        <time>2016-11-03T10:51:03Z</time>
      </trkpt>
      <trkpt lat="48.4039" lon="-4.18683">
        <ele>111.17</ele>
        <time>2016-11-03T10:51:33Z</time>
      </trkpt>
      <trkpt lat="48.40392" lon="-4.1868">
        <ele>110.69</ele>
        <time>2016-11-03T10:52:03Z</time>
      </trkpt>
      <trkpt lat="48.40411" lon="-4.18674">
        <ele>109.73</ele>
        <time>2016-11-03T10:52:33Z</time>
      </trkpt>
      <trkpt lat="48.40447" lon="-4.18685">
        <ele>114.53</ele>
        <time>2016-11-03T10:53:03Z</time>
      </trkpt>
      <trkpt lat="48.4048" lon="-4.18695">
        <ele>118.38</ele>
        <time>2016-11-03T10:53:33Z</time>
      </trkpt>
      <trkpt lat="48.4051" lon="-4.18701">
        <ele>116.46</ele>
        <time>2016-11-03T10:54:03Z</time>
      </trkpt>
      <trkpt lat="48.40557" lon="-4.18714">
        <ele>120.3</ele>
        <time>2016-11-03T10:54:33Z</time>
      </trkpt>
      <trkpt lat="48.40601" lon="-4.18724">
        <ele>124.63</ele>
        <time>2016-11-03T10:55:03Z</time>
      </trkpt>
      <trkpt lat="48.40622" lon="-4.1868">
        <ele>112.61</ele>
        <time>2016-11-03T10:55:33Z</time>
      </trkpt>
      <trkpt lat="48.40629" lon="-4.18626">
        <ele>106.84</ele>
        <time>2016-11-03T10:56:03Z</time>
      </trkpt>
      <trkpt lat="48.40633" lon="-4.18561">
        <ele>109.25</ele>
        <time>2016-11-03T10:56:33Z</time>
      </trkpt>
      <trkpt lat="48.4064" lon="-4.18498">
        <ele>109.73</ele>
        <time>2016-11-03T10:57:03Z</time>
      </trkpt>
      <trkpt lat="48.40643" lon="-4.18434">
        <ele>108.29</ele>
        <time>2016-11-03T10:57:33Z</time>
      </trkpt>
      <trkpt lat="48.40674" lon="-4.1843">
        <ele>103.96</ele>
        <time>2016-11-03T10:58:03Z</time>
      </trkpt>
      <trkpt lat="48.40705" lon="-4.18438">
        <ele>98.67</ele>
        <time>2016-11-03T10:58:33Z</time>
      </trkpt>
      <trkpt lat="48.40733" lon="-4.18469">
        <ele>107.81</ele>
        <time>2016-11-03T10:59:03Z</time>
      </trkpt>
      <trkpt lat="48.40766" lon="-4.18484">
        <ele>113.09</ele>
        <time>2016-11-03T10:59:33Z</time>
      </trkpt>
      <trkpt lat="48.408" lon="-4.18483">
        <ele>114.53</ele>
        <time>2016-11-03T11:00:03Z</time>
      </trkpt>
      <trkpt lat="48.40835" lon="-4.18494">
        <ele>114.53</ele>
        <time>2016-11-03T11:00:33Z</time>
      </trkpt>
      <trkpt lat="48.40873" lon="-4.18518">
        <ele>122.22</ele>
        <time>2016-11-03T11:01:03Z</time>
      </trkpt>
      <trkpt lat="48.40913" lon="-4.18539">
        <ele>131.84</ele>
        <time>2016-11-03T11:01:33Z</time>
      </trkpt>
      <trkpt lat="48.40945" lon="-4.18551">
        <ele>135.68</ele>
        <time>2016-11-03T11:02:03Z</time>
      </trkpt>
      <trkpt lat="48.40962" lon="-4.18501">
        <ele>126.55</ele>
        <time>2016-11-03T11:02:33Z</time>
      </trkpt>
      <trkpt lat="48.40971" lon="-4.18443">
        <ele>120.3</ele>
        <time>2016-11-03T11:03:03Z</time>
      </trkpt>
      <trkpt lat="48.40982" lon="-4.18384">
        <ele>116.94</ele>
        <time>2016-11-03T11:03:33Z</time>
      </trkpt>
      <trkpt lat="48.40991" lon="-4.18325">
        <ele>114.53</ele>
        <time>2016-11-03T11:04:03Z</time>
      </trkpt>
      <trkpt lat="48.41" lon="-4.18265">
        <ele>114.05</ele>
        <time>2016-11-03T11:04:33Z</time>
      </trkpt>
      <trkpt lat="48.41006" lon="-4.18208">
        <ele>112.13</ele>
        <time>2016-11-03T11:05:03Z</time>
      </trkpt>
      <trkpt lat="48.41018" lon="-4.18151">
        <ele>107.81</ele>
        <time>2016-11-03T11:05:33Z</time>
      </trkpt>
      <trkpt lat="48.4102" lon="-4.18119">
        <ele>97.23</ele>
        <time>2016-11-03T11:06:03Z</time>
      </trkpt>
      <trkpt lat="48.41023" lon="-4.18108">
        <ele>96.75</ele>
        <time>2016-11-03T11:06:33Z</time>
      </trkpt>
      <trkpt lat="48.41061" lon="-4.18093">
        <ele>107.81</ele>
        <time>2016-11-03T11:07:03Z</time>
      </trkpt>
      <trkpt lat="48.41098" lon="-4.1808">
        <ele>113.09</ele>
        <time>2016-11-03T11:07:33Z</time>
      </trkpt>
      <trkpt lat="48.41113" lon="-4.18031">
        <ele>114.05</ele>
        <time>2016-11-03T11:08:03Z</time>
      </trkpt>
      <trkpt lat="48.41112" lon="-4.1798">
        <ele>108.29</ele>
        <time>2016-11-03T11:08:33Z</time>
      </trkpt>
      <trkpt lat="48.4111" lon="-4.17932">
        <ele>104.92</ele>
        <time>2016-11-03T11:09:03Z</time>
      </trkpt>
      <trkpt lat="48.41125" lon="-4.17888">
        <ele>100.6</ele>
        <time>2016-11-03T11:09:33Z</time>
      </trkpt>
      <trkpt lat="48.41145" lon="-4.17836">
        <ele>97.23</ele>
        <time>2016-11-03T11:10:03Z</time>
      </trkpt>
      <trkpt lat="48.41175" lon="-4.17799">
        <ele>97.71</ele>
        <time>2016-11-03T11:10:33Z</time>
      </trkpt>
      <trkpt lat="48.41199" lon="-4.17761">
        <ele>102.04</ele>
        <time>2016-11-03T11:11:03Z</time>
      </trkpt>
      <trkpt lat="48.41226" lon="-4.17711">
        <ele>110.69</ele>
        <time>2016-11-03T11:11:33Z</time>
      </trkpt>
      <trkpt lat="48.4125" lon="-4.17671">
        <ele>112.61</ele>
        <time>2016-11-03T11:12:03Z</time>
      </trkpt>
      <trkpt lat="48.41283" lon="-4.17635">
        <ele>103.96</ele>
        <time>2016-11-03T11:12:33Z</time>
      </trkpt>
      <trkpt lat="48.41309" lon="-4.17586">
        <ele>122.22</ele>
        <time>2016-11-03T11:13:03Z</time>
      </trkpt>
      <trkpt lat="48.41323" lon="-4.17555">
        <ele>134.72</ele>
        <time>2016-11-03T11:13:33Z</time>
      </trkpt>
      <trkpt lat="48.41345" lon="-4.17514">
        <ele>130.4</ele>
        <time>2016-11-03T11:14:03Z</time>
      </trkpt>
      <trkpt lat="48.41365" lon="-4.17471">
        <ele>132.32</ele>
        <time>2016-11-03T11:14:33Z</time>
      </trkpt>
      <trkpt lat="48.41388" lon="-4.17433">
        <ele>128.95</ele>
        <time>2016-11-03T11:15:03Z</time>
      </trkpt>
      <trkpt lat="48.41402" lon="-4.17386">
        <ele>137.61</ele>
        <time>2016-11-03T11:15:33Z</time>
      </trkpt>
      <trkpt lat="48.4142" lon="-4.17343">
        <ele>131.84</ele>
        <time>2016-11-03T11:16:03Z</time>
      </trkpt>
      <trkpt lat="48.41432" lon="-4.17286">
        <ele>136.16</ele>
        <time>2016-11-03T11:16:33Z</time>
      </trkpt>
      <trkpt lat="48.41434" lon="-4.1722">
        <ele>135.68</ele>
        <time>2016-11-03T11:17:03Z</time>
      </trkpt>
      <trkpt lat="48.41442" lon="-4.17151">
        <ele>150.1</ele>
        <time>2016-11-03T11:17:33Z</time>
      </trkpt>
      <trkpt lat="48.41471" lon="-4.17119">
        <ele>152.03</ele>
        <time>2016-11-03T11:18:03Z</time>
      </trkpt>
      <trkpt lat="48.41505" lon="-4.17113">
        <ele>156.35</ele>
        <time>2016-11-03T11:18:33Z</time>
      </trkpt>
      <trkpt lat="48.41536" lon="-4.17079">
        <ele>159.72</ele>
        <time>2016-11-03T11:19:03Z</time>
      </trkpt>
      <trkpt lat="48.41546" lon="-4.17023">
        <ele>157.79</ele>
        <time>2016-11-03T11:19:33Z</time>
      </trkpt>
      <trkpt lat="48.41543" lon="-4.17002">
        <ele>155.39</ele>
        <time>2016-11-03T11:20:03Z</time>
      </trkpt>
    </trkseg>
  </trk>
</gpx>